sensor_id;sensor_type;location;lat;lon;timestamp;P1;durP1;ratioP1;P2;durP2;ratioP2
64094;SDS011;50353;51.420;5.682;2023-07-09T00:01:46;12.95;;;7.10;;
64094;SDS011;50353;51.420;5.682;2023-07-09T00:04:11;11.50;;;6.75;;
64094;SDS011;50353;51.420;5.682;2023-07-09T00:06:37;11.93;;;7.15;;
64094;SDS011;50353;51.420;5.682;2023-07-09T00:11:29;10.73;;;7.20;;
64094;SDS011;50353;51.420;5.682;2023-07-09T00:13:55;11.02;;;6.70;;
64094;SDS011;50353;51.420;5.682;2023-07-09T00:16:21;11.93;;;7.07;;
64094;SDS011;50353;51.420;5.682;2023-07-09T00:18:50;13.02;;;7.20;;
64094;SDS011;50353;51.420;5.682;2023-07-09T00:21:16;12.90;;;7.93;;
64094;SDS011;50353;51.420;5.682;2023-07-09T00:23:42;12.18;;;7.10;;
64094;SDS011;50353;51.420;5.682;2023-07-09T00:26:10;9.37;;;6.23;;
64094;SDS011;50353;51.420;5.682;2023-07-09T00:28:38;11.60;;;7.18;;
64094;SDS011;50353;51.420;5.682;2023-07-09T00:31:04;13.35;;;7.57;;
64094;SDS011;50353;51.420;5.682;2023-07-09T00:33:30;13.20;;;7.90;;
64094;SDS011;50353;51.420;5.682;2023-07-09T00:35:56;13.75;;;7.47;;
64094;SDS011;50353;51.420;5.682;2023-07-09T00:38:22;13.20;;;7.68;;
64094;SDS011;50353;51.420;5.682;2023-07-09T00:41:02;13.40;;;8.38;;
64094;SDS011;50353;51.420;5.682;2023-07-09T00:43:30;11.05;;;7.38;;
64094;SDS011;50353;51.420;5.682;2023-07-09T00:53:53;9.55;;;7.32;;
64094;SDS011;50353;51.420;5.682;2023-07-09T00:56:44;11.88;;;7.25;;
64094;SDS011;50353;51.420;5.682;2023-07-09T00:59:12;9.18;;;6.63;;
64094;SDS011;50353;51.420;5.682;2023-07-09T01:01:40;10.77;;;7.25;;
64094;SDS011;50353;51.420;5.682;2023-07-09T01:04:06;11.57;;;6.82;;
64094;SDS011;50353;51.420;5.682;2023-07-09T01:06:35;11.85;;;7.72;;
64094;SDS011;50353;51.420;5.682;2023-07-09T01:09:04;13.50;;;9.00;;
64094;SDS011;50353;51.420;5.682;2023-07-09T01:11:31;19.00;;;10.93;;
64094;SDS011;50353;51.420;5.682;2023-07-09T01:13:57;17.35;;;9.68;;
64094;SDS011;50353;51.420;5.682;2023-07-09T01:16:28;16.05;;;10.27;;
64094;SDS011;50353;51.420;5.682;2023-07-09T01:18:56;19.40;;;10.63;;
64094;SDS011;50353;51.420;5.682;2023-07-09T01:21:22;14.88;;;8.85;;
64094;SDS011;50353;51.420;5.682;2023-07-09T01:23:48;13.83;;;9.37;;
64094;SDS011;50353;51.420;5.682;2023-07-09T01:26:18;13.40;;;8.93;;
64094;SDS011;50353;51.420;5.682;2023-07-09T01:28:46;12.52;;;8.25;;
64094;SDS011;50353;51.420;5.682;2023-07-09T01:31:13;12.98;;;8.63;;
64094;SDS011;50353;51.420;5.682;2023-07-09T01:33:40;17.02;;;8.75;;
64094;SDS011;50353;51.420;5.682;2023-07-09T01:36:06;14.85;;;9.50;;
64094;SDS011;50353;51.420;5.682;2023-07-09T01:38:38;14.68;;;8.65;;
64094;SDS011;50353;51.420;5.682;2023-07-09T01:41:07;14.40;;;9.20;;
64094;SDS011;50353;51.420;5.682;2023-07-09T01:43:33;14.70;;;10.10;;
64094;SDS011;50353;51.420;5.682;2023-07-09T01:45:59;13.52;;;9.00;;
64094;SDS011;50353;51.420;5.682;2023-07-09T01:48:24;13.77;;;8.75;;
64094;SDS011;50353;51.420;5.682;2023-07-09T01:50:51;11.77;;;8.70;;
64094;SDS011;50353;51.420;5.682;2023-07-09T01:53:18;13.48;;;8.70;;
64094;SDS011;50353;51.420;5.682;2023-07-09T01:55:48;12.95;;;8.82;;
64094;SDS011;50353;51.420;5.682;2023-07-09T01:58:17;14.07;;;8.60;;
64094;SDS011;50353;51.420;5.682;2023-07-09T02:00:42;13.70;;;8.88;;
64094;SDS011;50353;51.420;5.682;2023-07-09T02:03:10;15.50;;;9.63;;
64094;SDS011;50353;51.420;5.682;2023-07-09T02:05:36;12.07;;;7.70;;
64094;SDS011;50353;51.420;5.682;2023-07-09T02:08:01;13.00;;;8.40;;
64094;SDS011;50353;51.420;5.682;2023-07-09T02:10:27;17.50;;;9.27;;
64094;SDS011;50353;51.420;5.682;2023-07-09T02:12:52;13.70;;;9.73;;
64094;SDS011;50353;51.420;5.682;2023-07-09T02:15:18;13.77;;;9.30;;
64094;SDS011;50353;51.420;5.682;2023-07-09T02:17:43;13.10;;;9.03;;
64094;SDS011;50353;51.420;5.682;2023-07-09T02:20:10;13.00;;;8.50;;
64094;SDS011;50353;51.420;5.682;2023-07-09T02:22:36;16.85;;;9.85;;
64094;SDS011;50353;51.420;5.682;2023-07-09T02:25:03;11.93;;;9.27;;
64094;SDS011;50353;51.420;5.682;2023-07-09T02:27:29;13.40;;;9.13;;
64094;SDS011;50353;51.420;5.682;2023-07-09T02:29:54;11.07;;;8.52;;
64094;SDS011;50353;51.420;5.682;2023-07-09T02:32:21;12.27;;;8.52;;
64094;SDS011;50353;51.420;5.682;2023-07-09T02:34:49;12.25;;;8.32;;
64094;SDS011;50353;51.420;5.682;2023-07-09T02:37:17;10.63;;;8.43;;
64094;SDS011;50353;51.420;5.682;2023-07-09T02:39:44;17.17;;;8.77;;
64094;SDS011;50353;51.420;5.682;2023-07-09T02:42:10;14.27;;;8.55;;
64094;SDS011;50353;51.420;5.682;2023-07-09T02:44:36;17.35;;;9.88;;
64094;SDS011;50353;51.420;5.682;2023-07-09T02:47:02;16.38;;;9.18;;
64094;SDS011;50353;51.420;5.682;2023-07-09T02:49:28;12.20;;;8.45;;
64094;SDS011;50353;51.420;5.682;2023-07-09T02:51:53;12.88;;;10.10;;
64094;SDS011;50353;51.420;5.682;2023-07-09T02:54:18;14.23;;;10.33;;
64094;SDS011;50353;51.420;5.682;2023-07-09T02:56:44;12.57;;;9.57;;
64094;SDS011;50353;51.420;5.682;2023-07-09T02:59:09;16.85;;;11.23;;
64094;SDS011;50353;51.420;5.682;2023-07-09T03:01:36;16.67;;;11.35;;
64094;SDS011;50353;51.420;5.682;2023-07-09T03:04:01;16.70;;;11.98;;
64094;SDS011;50353;51.420;5.682;2023-07-09T03:06:28;15.43;;;10.82;;
64094;SDS011;50353;51.420;5.682;2023-07-09T03:08:54;17.75;;;12.13;;
64094;SDS011;50353;51.420;5.682;2023-07-09T03:11:20;12.77;;;9.30;;
64094;SDS011;50353;51.420;5.682;2023-07-09T03:13:46;14.88;;;10.75;;
64094;SDS011;50353;51.420;5.682;2023-07-09T03:16:12;16.80;;;11.25;;
64094;SDS011;50353;51.420;5.682;2023-07-09T03:18:39;15.60;;;10.32;;
64094;SDS011;50353;51.420;5.682;2023-07-09T03:21:04;13.25;;;10.75;;
64094;SDS011;50353;51.420;5.682;2023-07-09T03:23:30;14.90;;;10.13;;
64094;SDS011;50353;51.420;5.682;2023-07-09T03:25:55;15.73;;;11.27;;
64094;SDS011;50353;51.420;5.682;2023-07-09T03:28:21;16.75;;;10.68;;
64094;SDS011;50353;51.420;5.682;2023-07-09T03:30:48;16.48;;;10.70;;
64094;SDS011;50353;51.420;5.682;2023-07-09T03:33:14;14.43;;;10.40;;
64094;SDS011;50353;51.420;5.682;2023-07-09T03:35:41;14.45;;;11.18;;
64094;SDS011;50353;51.420;5.682;2023-07-09T03:38:07;16.55;;;11.82;;
64094;SDS011;50353;51.420;5.682;2023-07-09T03:40:33;13.75;;;10.32;;
64094;SDS011;50353;51.420;5.682;2023-07-09T03:42:59;15.30;;;10.18;;
64094;SDS011;50353;51.420;5.682;2023-07-09T03:45:25;16.75;;;10.18;;
64094;SDS011;50353;51.420;5.682;2023-07-09T03:47:50;19.33;;;10.52;;
64094;SDS011;50353;51.420;5.682;2023-07-09T03:50:16;18.83;;;11.27;;
64094;SDS011;50353;51.420;5.682;2023-07-09T03:52:41;11.55;;;9.57;;
64094;SDS011;50353;51.420;5.682;2023-07-09T03:55:07;13.75;;;9.27;;
64094;SDS011;50353;51.420;5.682;2023-07-09T03:57:33;14.98;;;10.85;;
64094;SDS011;50353;51.420;5.682;2023-07-09T03:59:59;13.65;;;9.65;;
64094;SDS011;50353;51.420;5.682;2023-07-09T04:02:24;16.25;;;11.10;;
64094;SDS011;50353;51.420;5.682;2023-07-09T04:04:50;15.48;;;10.90;;
64094;SDS011;50353;51.420;5.682;2023-07-09T04:07:15;16.67;;;11.52;;
64094;SDS011;50353;51.420;5.682;2023-07-09T04:09:41;14.63;;;9.50;;
64094;SDS011;50353;51.420;5.682;2023-07-09T04:12:07;12.70;;;9.95;;
64094;SDS011;50353;51.420;5.682;2023-07-09T04:14:33;12.70;;;9.27;;
64094;SDS011;50353;51.420;5.682;2023-07-09T04:16:58;13.23;;;9.77;;
64094;SDS011;50353;51.420;5.682;2023-07-09T04:19:24;14.55;;;10.60;;
64094;SDS011;50353;51.420;5.682;2023-07-09T04:21:50;18.73;;;10.45;;
64094;SDS011;50353;51.420;5.682;2023-07-09T04:24:16;16.17;;;10.52;;
64094;SDS011;50353;51.420;5.682;2023-07-09T04:29:08;16.20;;;11.68;;
64094;SDS011;50353;51.420;5.682;2023-07-09T04:31:34;16.02;;;10.07;;
64094;SDS011;50353;51.420;5.682;2023-07-09T04:33:59;17.80;;;10.75;;
64094;SDS011;50353;51.420;5.682;2023-07-09T04:36:24;15.23;;;9.40;;
64094;SDS011;50353;51.420;5.682;2023-07-09T04:38:51;13.73;;;10.23;;
64094;SDS011;50353;51.420;5.682;2023-07-09T04:41:16;15.05;;;10.85;;
64094;SDS011;50353;51.420;5.682;2023-07-09T04:43:41;15.98;;;11.02;;
64094;SDS011;50353;51.420;5.682;2023-07-09T04:46:07;13.47;;;9.80;;
64094;SDS011;50353;51.420;5.682;2023-07-09T04:48:32;16.10;;;10.70;;
64094;SDS011;50353;51.420;5.682;2023-07-09T04:50:57;17.03;;;11.23;;
64094;SDS011;50353;51.420;5.682;2023-07-09T04:53:24;17.67;;;11.45;;
64094;SDS011;50353;51.420;5.682;2023-07-09T04:55:49;19.80;;;11.23;;
64094;SDS011;50353;51.420;5.682;2023-07-09T04:58:15;16.23;;;11.02;;
64094;SDS011;50353;51.420;5.682;2023-07-09T05:00:41;17.33;;;11.95;;
64094;SDS011;50353;51.420;5.682;2023-07-09T05:03:07;16.88;;;12.38;;
64094;SDS011;50353;51.420;5.682;2023-07-09T05:05:32;18.38;;;12.75;;
64094;SDS011;50353;51.420;5.682;2023-07-09T05:07:58;18.85;;;12.80;;
64094;SDS011;50353;51.420;5.682;2023-07-09T05:10:24;19.48;;;12.05;;
64094;SDS011;50353;51.420;5.682;2023-07-09T05:12:50;15.07;;;11.52;;
64094;SDS011;50353;51.420;5.682;2023-07-09T05:15:17;16.75;;;11.68;;
64094;SDS011;50353;51.420;5.682;2023-07-09T05:17:44;18.17;;;11.82;;
64094;SDS011;50353;51.420;5.682;2023-07-09T05:20:10;28.00;;;13.82;;
64094;SDS011;50353;51.420;5.682;2023-07-09T05:22:35;22.40;;;13.05;;
64094;SDS011;50353;51.420;5.682;2023-07-09T05:25:00;17.88;;;13.35;;
64094;SDS011;50353;51.420;5.682;2023-07-09T05:27:26;23.65;;;13.43;;
64094;SDS011;50353;51.420;5.682;2023-07-09T05:29:51;20.23;;;13.63;;
64094;SDS011;50353;51.420;5.682;2023-07-09T05:32:16;19.03;;;12.93;;
64094;SDS011;50353;51.420;5.682;2023-07-09T05:34:42;21.57;;;12.57;;
64094;SDS011;50353;51.420;5.682;2023-07-09T05:37:07;18.08;;;12.02;;
64094;SDS011;50353;51.420;5.682;2023-07-09T05:39:32;16.27;;;12.17;;
64094;SDS011;50353;51.420;5.682;2023-07-09T05:41:57;16.83;;;11.20;;
64094;SDS011;50353;51.420;5.682;2023-07-09T05:44:23;19.17;;;13.37;;
64094;SDS011;50353;51.420;5.682;2023-07-09T05:46:48;16.03;;;12.40;;
64094;SDS011;50353;51.420;5.682;2023-07-09T05:49:13;18.40;;;11.67;;
64094;SDS011;50353;51.420;5.682;2023-07-09T05:51:38;22.20;;;13.10;;
64094;SDS011;50353;51.420;5.682;2023-07-09T05:54:04;17.93;;;12.53;;
64094;SDS011;50353;51.420;5.682;2023-07-09T05:56:29;19.30;;;12.38;;
64094;SDS011;50353;51.420;5.682;2023-07-09T05:58:55;15.90;;;11.85;;
64094;SDS011;50353;51.420;5.682;2023-07-09T06:01:21;18.67;;;12.68;;
64094;SDS011;50353;51.420;5.682;2023-07-09T06:03:47;20.83;;;12.57;;
64094;SDS011;50353;51.420;5.682;2023-07-09T06:06:13;17.95;;;12.00;;
64094;SDS011;50353;51.420;5.682;2023-07-09T06:08:38;17.50;;;11.40;;
64094;SDS011;50353;51.420;5.682;2023-07-09T06:11:03;15.33;;;10.50;;
64094;SDS011;50353;51.420;5.682;2023-07-09T06:13:29;16.27;;;10.20;;
64094;SDS011;50353;51.420;5.682;2023-07-09T06:15:56;16.70;;;10.70;;
64094;SDS011;50353;51.420;5.682;2023-07-09T06:18:23;18.27;;;10.68;;
64094;SDS011;50353;51.420;5.682;2023-07-09T06:20:50;14.45;;;9.77;;
64094;SDS011;50353;51.420;5.682;2023-07-09T06:23:17;19.50;;;11.13;;
64094;SDS011;50353;51.420;5.682;2023-07-09T06:25:43;16.90;;;10.25;;
64094;SDS011;50353;51.420;5.682;2023-07-09T06:28:12;16.23;;;10.20;;
64094;SDS011;50353;51.420;5.682;2023-07-09T06:30:37;15.27;;;9.63;;
64094;SDS011;50353;51.420;5.682;2023-07-09T06:33:02;14.80;;;9.60;;
64094;SDS011;50353;51.420;5.682;2023-07-09T06:35:28;17.92;;;11.18;;
64094;SDS011;50353;51.420;5.682;2023-07-09T06:37:53;13.87;;;9.20;;
64094;SDS011;50353;51.420;5.682;2023-07-09T06:40:18;15.47;;;9.10;;
64094;SDS011;50353;51.420;5.682;2023-07-09T06:42:44;16.50;;;9.37;;
64094;SDS011;50353;51.420;5.682;2023-07-09T06:45:09;14.60;;;9.38;;
64094;SDS011;50353;51.420;5.682;2023-07-09T06:47:35;16.00;;;9.63;;
64094;SDS011;50353;51.420;5.682;2023-07-09T06:50:00;18.23;;;8.52;;
64094;SDS011;50353;51.420;5.682;2023-07-09T06:52:25;11.88;;;7.80;;
64094;SDS011;50353;51.420;5.682;2023-07-09T06:54:51;13.47;;;7.97;;
64094;SDS011;50353;51.420;5.682;2023-07-09T06:57:16;11.67;;;8.57;;
64094;SDS011;50353;51.420;5.682;2023-07-09T06:59:41;14.40;;;8.90;;
64094;SDS011;50353;51.420;5.682;2023-07-09T07:02:07;13.03;;;8.50;;
64094;SDS011;50353;51.420;5.682;2023-07-09T07:04:33;12.23;;;8.00;;
64094;SDS011;50353;51.420;5.682;2023-07-09T07:06:58;12.73;;;7.47;;
64094;SDS011;50353;51.420;5.682;2023-07-09T07:09:23;13.40;;;7.95;;
64094;SDS011;50353;51.420;5.682;2023-07-09T07:11:49;13.30;;;6.20;;
64094;SDS011;50353;51.420;5.682;2023-07-09T07:14:15;12.18;;;6.63;;
64094;SDS011;50353;51.420;5.682;2023-07-09T07:16:40;7.82;;;5.70;;
64094;SDS011;50353;51.420;5.682;2023-07-09T07:19:06;9.48;;;4.85;;
64094;SDS011;50353;51.420;5.682;2023-07-09T07:21:31;22.35;;;14.63;;
64094;SDS011;50353;51.420;5.682;2023-07-09T07:23:56;11.75;;;7.03;;
64094;SDS011;50353;51.420;5.682;2023-07-09T07:26:22;11.75;;;6.18;;
64094;SDS011;50353;51.420;5.682;2023-07-09T07:28:47;9.43;;;5.75;;
64094;SDS011;50353;51.420;5.682;2023-07-09T07:31:12;8.93;;;5.82;;
64094;SDS011;50353;51.420;5.682;2023-07-09T07:33:39;13.10;;;6.37;;
64094;SDS011;50353;51.420;5.682;2023-07-09T07:36:06;10.27;;;5.43;;
64094;SDS011;50353;51.420;5.682;2023-07-09T07:38:32;7.65;;;4.60;;
64094;SDS011;50353;51.420;5.682;2023-07-09T07:40:57;9.00;;;5.20;;
64094;SDS011;50353;51.420;5.682;2023-07-09T07:43:22;9.73;;;4.93;;
64094;SDS011;50353;51.420;5.682;2023-07-09T07:45:48;9.90;;;4.70;;
64094;SDS011;50353;51.420;5.682;2023-07-09T07:48:13;7.45;;;4.03;;
64094;SDS011;50353;51.420;5.682;2023-07-09T07:50:39;9.83;;;4.60;;
64094;SDS011;50353;51.420;5.682;2023-07-09T07:53:05;4.75;;;3.50;;
64094;SDS011;50353;51.420;5.682;2023-07-09T07:55:32;8.98;;;4.32;;
64094;SDS011;50353;51.420;5.682;2023-07-09T07:57:58;9.18;;;4.40;;
64094;SDS011;50353;51.420;5.682;2023-07-09T08:00:25;7.95;;;4.22;;
64094;SDS011;50353;51.420;5.682;2023-07-09T08:02:50;7.55;;;4.38;;
64094;SDS011;50353;51.420;5.682;2023-07-09T08:05:15;12.20;;;5.25;;
64094;SDS011;50353;51.420;5.682;2023-07-09T08:07:41;9.43;;;4.70;;
64094;SDS011;50353;51.420;5.682;2023-07-09T08:10:06;8.43;;;4.53;;
64094;SDS011;50353;51.420;5.682;2023-07-09T08:12:32;8.15;;;5.10;;
64094;SDS011;50353;51.420;5.682;2023-07-09T08:14:57;9.23;;;5.30;;
64094;SDS011;50353;51.420;5.682;2023-07-09T08:17:22;8.27;;;4.20;;
64094;SDS011;50353;51.420;5.682;2023-07-09T08:19:48;10.27;;;5.20;;
64094;SDS011;50353;51.420;5.682;2023-07-09T08:22:15;10.57;;;5.03;;
64094;SDS011;50353;51.420;5.682;2023-07-09T08:24:41;8.45;;;5.18;;
64094;SDS011;50353;51.420;5.682;2023-07-09T08:27:07;7.50;;;4.50;;
64094;SDS011;50353;51.420;5.682;2023-07-09T08:29:33;8.73;;;5.18;;
64094;SDS011;50353;51.420;5.682;2023-07-09T08:31:59;9.88;;;5.05;;
64094;SDS011;50353;51.420;5.682;2023-07-09T08:34:24;9.27;;;5.35;;
64094;SDS011;50353;51.420;5.682;2023-07-09T08:36:49;14.65;;;5.07;;
64094;SDS011;50353;51.420;5.682;2023-07-09T08:39:15;9.93;;;5.57;;
64094;SDS011;50353;51.420;5.682;2023-07-09T08:41:45;12.93;;;5.23;;
64094;SDS011;50353;51.420;5.682;2023-07-09T08:49:14;13.82;;;5.45;;
64094;SDS011;50353;51.420;5.682;2023-07-09T08:51:45;7.35;;;5.32;;
64094;SDS011;50353;51.420;5.682;2023-07-09T08:54:15;8.95;;;4.60;;
64094;SDS011;50353;51.420;5.682;2023-07-09T08:56:50;9.23;;;5.53;;
64094;SDS011;50353;51.420;5.682;2023-07-09T08:59:16;9.23;;;5.00;;
64094;SDS011;50353;51.420;5.682;2023-07-09T09:01:46;10.48;;;5.05;;
64094;SDS011;50353;51.420;5.682;2023-07-09T09:04:20;8.38;;;4.57;;
64094;SDS011;50353;51.420;5.682;2023-07-09T09:09:38;9.85;;;5.10;;
64094;SDS011;50353;51.420;5.682;2023-07-09T09:15:02;6.05;;;3.72;;
64094;SDS011;50353;51.420;5.682;2023-07-09T09:17:34;5.80;;;4.43;;
64094;SDS011;50353;51.420;5.682;2023-07-09T09:20:03;8.57;;;6.05;;
64094;SDS011;50353;51.420;5.682;2023-07-09T09:22:43;8.73;;;4.18;;
64094;SDS011;50353;51.420;5.682;2023-07-09T09:27:41;8.65;;;4.28;;
64094;SDS011;50353;51.420;5.682;2023-07-09T09:30:13;10.25;;;4.25;;
64094;SDS011;50353;51.420;5.682;2023-07-09T09:32:44;8.07;;;4.43;;
64094;SDS011;50353;51.420;5.682;2023-07-09T09:35:16;8.00;;;4.78;;
64094;SDS011;50353;51.420;5.682;2023-07-09T09:37:52;9.57;;;7.72;;
64094;SDS011;50353;51.420;5.682;2023-07-09T09:40:19;9.02;;;4.50;;
64094;SDS011;50353;51.420;5.682;2023-07-09T09:42:52;8.27;;;4.43;;
64094;SDS011;50353;51.420;5.682;2023-07-09T09:45:24;33.85;;;25.25;;
64094;SDS011;50353;51.420;5.682;2023-07-09T09:47:59;8.27;;;4.80;;
64094;SDS011;50353;51.420;5.682;2023-07-09T09:50:25;7.93;;;4.25;;
64094;SDS011;50353;51.420;5.682;2023-07-09T09:52:55;6.75;;;4.25;;
64094;SDS011;50353;51.420;5.682;2023-07-09T09:55:27;7.80;;;4.70;;
64094;SDS011;50353;51.420;5.682;2023-07-09T09:57:54;6.35;;;4.80;;
64094;SDS011;50353;51.420;5.682;2023-07-09T10:00:23;8.82;;;4.22;;
64094;SDS011;50353;51.420;5.682;2023-07-09T10:02:56;13.25;;;5.95;;
64094;SDS011;50353;51.420;5.682;2023-07-09T10:05:26;8.65;;;4.63;;
64094;SDS011;50353;51.420;5.682;2023-07-09T10:08:03;8.07;;;4.88;;
64094;SDS011;50353;51.420;5.682;2023-07-09T10:10:38;7.40;;;5.18;;
64094;SDS011;50353;51.420;5.682;2023-07-09T10:13:21;12.07;;;7.65;;
64094;SDS011;50353;51.420;5.682;2023-07-09T10:16:00;9.60;;;5.03;;
64094;SDS011;50353;51.420;5.682;2023-07-09T10:18:43;7.22;;;4.65;;
64094;SDS011;50353;51.420;5.682;2023-07-09T10:21:28;6.07;;;4.20;;
64094;SDS011;50353;51.420;5.682;2023-07-09T10:26:42;8.27;;;4.90;;
64094;SDS011;50353;51.420;5.682;2023-07-09T10:32:14;8.23;;;4.50;;
64094;SDS011;50353;51.420;5.682;2023-07-09T10:37:42;7.68;;;4.78;;
64094;SDS011;50353;51.420;5.682;2023-07-09T10:40:10;7.93;;;4.72;;
64094;SDS011;50353;51.420;5.682;2023-07-09T10:42:50;8.18;;;4.88;;
64094;SDS011;50353;51.420;5.682;2023-07-09T10:45:24;30.05;;;23.52;;
64094;SDS011;50353;51.420;5.682;2023-07-09T10:47:58;7.97;;;5.00;;
64094;SDS011;50353;51.420;5.682;2023-07-09T10:50:34;8.15;;;5.18;;
64094;SDS011;50353;51.420;5.682;2023-07-09T10:53:09;8.25;;;4.72;;
64094;SDS011;50353;51.420;5.682;2023-07-09T10:58:39;9.07;;;4.85;;
64094;SDS011;50353;51.420;5.682;2023-07-09T11:01:12;7.18;;;4.55;;
64094;SDS011;50353;51.420;5.682;2023-07-09T11:03:42;8.57;;;5.03;;
64094;SDS011;50353;51.420;5.682;2023-07-09T11:08:47;7.95;;;4.85;;
64094;SDS011;50353;51.420;5.682;2023-07-09T11:11:35;7.28;;;4.28;;
64094;SDS011;50353;51.420;5.682;2023-07-09T11:14:09;6.50;;;4.13;;
64094;SDS011;50353;51.420;5.682;2023-07-09T11:16:42;6.97;;;4.32;;
64094;SDS011;50353;51.420;5.682;2023-07-09T11:19:15;9.18;;;5.55;;
64094;SDS011;50353;51.420;5.682;2023-07-09T11:24:32;7.53;;;5.00;;
64094;SDS011;50353;51.420;5.682;2023-07-09T11:26:59;6.47;;;5.25;;
64094;SDS011;50353;51.420;5.682;2023-07-09T11:29:26;6.90;;;4.70;;
64094;SDS011;50353;51.420;5.682;2023-07-09T11:31:54;8.75;;;4.60;;
64094;SDS011;50353;51.420;5.682;2023-07-09T11:34:20;30.10;;;22.98;;
64094;SDS011;50353;51.420;5.682;2023-07-09T11:41:53;7.07;;;4.60;;
64094;SDS011;50353;51.420;5.682;2023-07-09T11:44:19;8.95;;;4.50;;
64094;SDS011;50353;51.420;5.682;2023-07-09T11:49:18;6.82;;;4.60;;
64094;SDS011;50353;51.420;5.682;2023-07-09T11:51:48;7.20;;;4.35;;
64094;SDS011;50353;51.420;5.682;2023-07-09T11:54:19;8.75;;;4.40;;
64094;SDS011;50353;51.420;5.682;2023-07-09T11:56:57;8.30;;;3.67;;
64094;SDS011;50353;51.420;5.682;2023-07-09T11:59:24;6.00;;;4.00;;
64094;SDS011;50353;51.420;5.682;2023-07-09T12:01:50;6.15;;;3.40;;
64094;SDS011;50353;51.420;5.682;2023-07-09T12:04:19;4.85;;;2.90;;
64094;SDS011;50353;51.420;5.682;2023-07-09T12:06:48;5.68;;;3.03;;
64094;SDS011;50353;51.420;5.682;2023-07-09T12:09:17;9.68;;;3.10;;
64094;SDS011;50353;51.420;5.682;2023-07-09T12:11:46;6.35;;;3.15;;
64094;SDS011;50353;51.420;5.682;2023-07-09T12:14:14;4.60;;;2.78;;
64094;SDS011;50353;51.420;5.682;2023-07-09T12:16:42;7.95;;;3.00;;
64094;SDS011;50353;51.420;5.682;2023-07-09T12:19:18;4.85;;;2.80;;
64094;SDS011;50353;51.420;5.682;2023-07-09T12:21:46;4.00;;;3.15;;
64094;SDS011;50353;51.420;5.682;2023-07-09T12:24:17;6.63;;;3.55;;
64094;SDS011;50353;51.420;5.682;2023-07-09T12:26:52;5.47;;;3.55;;
64094;SDS011;50353;51.420;5.682;2023-07-09T12:29:29;4.88;;;3.40;;
64094;SDS011;50353;51.420;5.682;2023-07-09T12:32:02;5.13;;;3.10;;
64094;SDS011;50353;51.420;5.682;2023-07-09T12:34:30;5.10;;;3.22;;
64094;SDS011;50353;51.420;5.682;2023-07-09T12:36:56;5.68;;;2.85;;
64094;SDS011;50353;51.420;5.682;2023-07-09T12:39:25;7.93;;;3.00;;
64094;SDS011;50353;51.420;5.682;2023-07-09T12:41:54;5.47;;;3.28;;
64094;SDS011;50353;51.420;5.682;2023-07-09T12:44:22;17.98;;;3.75;;
64094;SDS011;50353;51.420;5.682;2023-07-09T12:46:49;4.68;;;2.83;;
64094;SDS011;50353;51.420;5.682;2023-07-09T12:49:25;6.47;;;2.83;;
64094;SDS011;50353;51.420;5.682;2023-07-09T12:52:00;6.10;;;3.72;;
64094;SDS011;50353;51.420;5.682;2023-07-09T12:54:28;6.68;;;3.90;;
64094;SDS011;50353;51.420;5.682;2023-07-09T12:56:54;4.30;;;3.00;;
64094;SDS011;50353;51.420;5.682;2023-07-09T13:01:49;3.83;;;3.22;;
64094;SDS011;50353;51.420;5.682;2023-07-09T13:04:33;7.45;;;4.10;;
64094;SDS011;50353;51.420;5.682;2023-07-09T13:07:02;5.72;;;3.90;;
64094;SDS011;50353;51.420;5.682;2023-07-09T13:09:28;5.88;;;3.35;;
64094;SDS011;50353;51.420;5.682;2023-07-09T13:11:54;7.10;;;3.90;;
64094;SDS011;50353;51.420;5.682;2023-07-09T13:14:21;3.67;;;2.83;;
64094;SDS011;50353;51.420;5.682;2023-07-09T13:16:49;5.07;;;2.97;;
64094;SDS011;50353;51.420;5.682;2023-07-09T13:19:15;4.07;;;2.53;;
64094;SDS011;50353;51.420;5.682;2023-07-09T13:21:41;7.00;;;3.97;;
64094;SDS011;50353;51.420;5.682;2023-07-09T13:24:14;5.30;;;3.45;;
64094;SDS011;50353;51.420;5.682;2023-07-09T13:26:44;5.53;;;3.20;;
64094;SDS011;50353;51.420;5.682;2023-07-09T13:29:16;4.63;;;3.53;;
64094;SDS011;50353;51.420;5.682;2023-07-09T13:31:43;7.70;;;4.80;;
64094;SDS011;50353;51.420;5.682;2023-07-09T13:34:26;11.05;;;6.15;;
64094;SDS011;50353;51.420;5.682;2023-07-09T13:36:53;11.13;;;8.00;;
64094;SDS011;50353;51.420;5.682;2023-07-09T13:39:21;13.73;;;7.75;;
64094;SDS011;50353;51.420;5.682;2023-07-09T13:44:14;10.85;;;9.25;;
64094;SDS011;50353;51.420;5.682;2023-07-09T13:46:42;19.17;;;10.10;;
64094;SDS011;50353;51.420;5.682;2023-07-09T13:49:11;15.70;;;9.38;;
64094;SDS011;50353;51.420;5.682;2023-07-09T13:51:43;15.25;;;9.02;;
64094;SDS011;50353;51.420;5.682;2023-07-09T13:54:20;12.75;;;9.90;;
64094;SDS011;50353;51.420;5.682;2023-07-09T13:56:49;14.65;;;9.90;;
64094;SDS011;50353;51.420;5.682;2023-07-09T13:59:22;9.93;;;7.95;;
64094;SDS011;50353;51.420;5.682;2023-07-09T14:01:49;13.93;;;8.98;;
64094;SDS011;50353;51.420;5.682;2023-07-09T14:04:17;13.98;;;9.48;;
64094;SDS011;50353;51.420;5.682;2023-07-09T14:06:44;13.50;;;8.02;;
64094;SDS011;50353;51.420;5.682;2023-07-09T14:09:11;12.70;;;8.93;;
64094;SDS011;50353;51.420;5.682;2023-07-09T14:11:38;13.90;;;9.70;;
64094;SDS011;50353;51.420;5.682;2023-07-09T14:14:40;16.15;;;8.93;;
64094;SDS011;50353;51.420;5.682;2023-07-09T14:16:58;11.75;;;8.02;;
64094;SDS011;50353;51.420;5.682;2023-07-09T14:19:24;16.03;;;9.63;;
64094;SDS011;50353;51.420;5.682;2023-07-09T14:21:51;11.80;;;7.85;;
64094;SDS011;50353;51.420;5.682;2023-07-09T14:24:21;11.20;;;8.00;;
64094;SDS011;50353;51.420;5.682;2023-07-09T14:26:52;10.75;;;7.85;;
64094;SDS011;50353;51.420;5.682;2023-07-09T14:29:19;10.43;;;6.80;;
64094;SDS011;50353;51.420;5.682;2023-07-09T14:31:45;11.15;;;7.05;;
64094;SDS011;50353;51.420;5.682;2023-07-09T14:34:27;10.68;;;7.47;;
64094;SDS011;50353;51.420;5.682;2023-07-09T14:36:56;7.00;;;5.65;;
64094;SDS011;50353;51.420;5.682;2023-07-09T14:39:22;9.80;;;6.28;;
64094;SDS011;50353;51.420;5.682;2023-07-09T14:41:48;8.40;;;6.75;;
64094;SDS011;50353;51.420;5.682;2023-07-09T14:46:48;8.48;;;6.25;;
64094;SDS011;50353;51.420;5.682;2023-07-09T14:49:14;9.10;;;5.68;;
64094;SDS011;50353;51.420;5.682;2023-07-09T14:51:40;9.90;;;6.03;;
64094;SDS011;50353;51.420;5.682;2023-07-09T14:54:18;9.00;;;5.47;;
64094;SDS011;50353;51.420;5.682;2023-07-09T14:56:45;9.48;;;5.70;;
64094;SDS011;50353;51.420;5.682;2023-07-09T14:59:10;8.27;;;5.30;;
64094;SDS011;50353;51.420;5.682;2023-07-09T15:01:35;11.80;;;6.17;;
64094;SDS011;50353;51.420;5.682;2023-07-09T15:04:06;9.05;;;5.53;;
64094;SDS011;50353;51.420;5.682;2023-07-09T15:06:50;7.57;;;5.28;;
64094;SDS011;50353;51.420;5.682;2023-07-09T15:09:18;9.13;;;5.63;;
64094;SDS011;50353;51.420;5.682;2023-07-09T15:11:55;8.88;;;5.35;;
64094;SDS011;50353;51.420;5.682;2023-07-09T15:14:23;8.13;;;5.60;;
64094;SDS011;50353;51.420;5.682;2023-07-09T15:16:49;7.57;;;4.68;;
64094;SDS011;50353;51.420;5.682;2023-07-09T15:19:15;7.40;;;3.58;;
64094;SDS011;50353;51.420;5.682;2023-07-09T15:21:42;4.90;;;3.40;;
64094;SDS011;50353;51.420;5.682;2023-07-09T15:24:24;9.00;;;4.30;;
64094;SDS011;50353;51.420;5.682;2023-07-09T15:26:53;6.45;;;4.25;;
64094;SDS011;50353;51.420;5.682;2023-07-09T15:29:19;6.53;;;4.45;;
64094;SDS011;50353;51.420;5.682;2023-07-09T15:31:46;7.15;;;4.05;;
64094;SDS011;50353;51.420;5.682;2023-07-09T15:34:11;9.48;;;5.47;;
64094;SDS011;50353;51.420;5.682;2023-07-09T15:36:43;7.15;;;3.95;;
64094;SDS011;50353;51.420;5.682;2023-07-09T15:39:11;8.10;;;4.00;;